sensor_id;sensor_type;location;lat;lon;timestamp;P1;durP1;ratioP1;P2;durP2;ratioP2
65583;SDS011;62116;43.582;1.470;2022-08-26T00:00:07;5.40;;;1.38;;
65583;SDS011;62116;43.582;1.470;2022-08-26T00:02:35;3.15;;;1.40;;
65583;SDS011;62116;43.582;1.470;2022-08-26T00:05:00;6.63;;;1.60;;
65583;SDS011;62116;43.582;1.470;2022-08-26T00:07:26;6.13;;;1.48;;
65583;SDS011;62116;43.582;1.470;2022-08-26T00:09:51;4.25;;;1.52;;
65583;SDS011;62116;43.582;1.470;2022-08-26T00:12:17;5.25;;;1.50;;
65583;SDS011;62116;43.582;1.470;2022-08-26T00:14:42;4.05;;;1.35;;
65583;SDS011;62116;43.582;1.470;2022-08-26T00:17:08;4.05;;;1.35;;
65583;SDS011;62116;43.582;1.470;2022-08-26T00:19:34;3.65;;;1.20;;
65583;SDS011;62116;43.582;1.470;2022-08-26T00:21:59;5.20;;;1.45;;
65583;SDS011;62116;43.582;1.470;2022-08-26T00:24:24;5.07;;;1.55;;
65583;SDS011;62116;43.582;1.470;2022-08-26T00:26:50;4.65;;;1.17;;
65583;SDS011;62116;43.582;1.470;2022-08-26T00:29:16;5.95;;;1.58;;
65583;SDS011;62116;43.582;1.470;2022-08-26T00:31:42;4.20;;;1.52;;
65583;SDS011;62116;43.582;1.470;2022-08-26T00:34:07;4.97;;;1.40;;
65583;SDS011;62116;43.582;1.470;2022-08-26T00:36:34;8.48;;;1.50;;
65583;SDS011;62116;43.582;1.470;2022-08-26T00:38:59;8.95;;;1.52;;
65583;SDS011;62116;43.582;1.470;2022-08-26T00:41:25;7.53;;;1.52;;
65583;SDS011;62116;43.582;1.470;2022-08-26T00:43:50;6.95;;;1.50;;
65583;SDS011;62116;43.582;1.470;2022-08-26T00:46:30;4.13;;;1.25;;
65583;SDS011;62116;43.582;1.470;2022-08-26T00:49:04;3.90;;;1.33;;
65583;SDS011;62116;43.582;1.470;2022-08-26T00:51:33;5.68;;;1.40;;
65583;SDS011;62116;43.582;1.470;2022-08-26T00:54:06;6.30;;;1.73;;
65583;SDS011;62116;43.582;1.470;2022-08-26T00:56:39;4.88;;;1.35;;
65583;SDS011;62116;43.582;1.470;2022-08-26T00:59:26;8.30;;;1.40;;
65583;SDS011;62116;43.582;1.470;2022-08-26T01:01:53;5.13;;;1.48;;
65583;SDS011;62116;43.582;1.470;2022-08-26T01:04:21;5.97;;;1.30;;
65583;SDS011;62116;43.582;1.470;2022-08-26T01:06:48;6.35;;;1.42;;
65583;SDS011;62116;43.582;1.470;2022-08-26T01:09:16;7.50;;;1.50;;
65583;SDS011;62116;43.582;1.470;2022-08-26T01:11:43;5.20;;;1.50;;
65583;SDS011;62116;43.582;1.470;2022-08-26T01:14:10;5.28;;;1.45;;
65583;SDS011;62116;43.582;1.470;2022-08-26T01:16:37;3.95;;;1.20;;
65583;SDS011;62116;43.582;1.470;2022-08-26T01:19:14;5.80;;;1.50;;
65583;SDS011;62116;43.582;1.470;2022-08-26T01:21:48;8.95;;;1.63;;
65583;SDS011;62116;43.582;1.470;2022-08-26T01:24:20;6.13;;;1.40;;
65583;SDS011;62116;43.582;1.470;2022-08-26T01:26:45;3.63;;;1.40;;
65583;SDS011;62116;43.582;1.470;2022-08-26T01:29:14;4.97;;;1.42;;
65583;SDS011;62116;43.582;1.470;2022-08-26T01:31:44;7.25;;;1.67;;
65583;SDS011;62116;43.582;1.470;2022-08-26T01:34:22;6.82;;;1.70;;
65583;SDS011;62116;43.582;1.470;2022-08-26T01:37:13;6.38;;;1.58;;
65583;SDS011;62116;43.582;1.470;2022-08-26T01:39:39;5.13;;;1.50;;
65583;SDS011;62116;43.582;1.470;2022-08-26T01:42:07;9.85;;;1.58;;
65583;SDS011;62116;43.582;1.470;2022-08-26T01:44:37;4.07;;;1.20;;
65583;SDS011;62116;43.582;1.470;2022-08-26T01:47:06;7.00;;;1.50;;
65583;SDS011;62116;43.582;1.470;2022-08-26T01:49:34;5.13;;;1.40;;
65583;SDS011;62116;43.582;1.470;2022-08-26T01:52:00;5.88;;;1.33;;
65583;SDS011;62116;43.582;1.470;2022-08-26T01:54:28;4.68;;;1.60;;
65583;SDS011;62116;43.582;1.470;2022-08-26T01:56:53;7.38;;;1.45;;
65583;SDS011;62116;43.582;1.470;2022-08-26T01:59:19;5.65;;;1.45;;
65583;SDS011;62116;43.582;1.470;2022-08-26T02:01:47;4.60;;;1.27;;
65583;SDS011;62116;43.582;1.470;2022-08-26T02:04:23;7.45;;;1.63;;
65583;SDS011;62116;43.582;1.470;2022-08-26T02:06:53;9.27;;;1.50;;
65583;SDS011;62116;43.582;1.470;2022-08-26T02:09:20;6.93;;;1.40;;
65583;SDS011;62116;43.582;1.470;2022-08-26T02:11:47;5.90;;;1.30;;
65583;SDS011;62116;43.582;1.470;2022-08-26T02:14:15;6.03;;;1.58;;
65583;SDS011;62116;43.582;1.470;2022-08-26T02:16:43;5.78;;;1.60;;
65583;SDS011;62116;43.582;1.470;2022-08-26T02:19:12;5.18;;;1.50;;
65583;SDS011;62116;43.582;1.470;2022-08-26T02:21:39;6.63;;;1.60;;
65583;SDS011;62116;43.582;1.470;2022-08-26T02:24:10;5.18;;;1.40;;
65583;SDS011;62116;43.582;1.470;2022-08-26T02:26:38;5.57;;;1.40;;
65583;SDS011;62116;43.582;1.470;2022-08-26T02:29:05;5.95;;;1.40;;
65583;SDS011;62116;43.582;1.470;2022-08-26T02:31:35;6.57;;;1.42;;
65583;SDS011;62116;43.582;1.470;2022-08-26T02:34:11;6.05;;;1.33;;
65583;SDS011;62116;43.582;1.470;2022-08-26T02:36:39;5.75;;;1.35;;
65583;SDS011;62116;43.582;1.470;2022-08-26T02:39:05;6.65;;;1.42;;
65583;SDS011;62116;43.582;1.470;2022-08-26T02:41:32;5.93;;;1.45;;
65583;SDS011;62116;43.582;1.470;2022-08-26T02:43:57;4.57;;;1.20;;
65583;SDS011;62116;43.582;1.470;2022-08-26T02:46:23;4.43;;;1.27;;
65583;SDS011;62116;43.582;1.470;2022-08-26T02:48:49;6.38;;;1.40;;
65583;SDS011;62116;43.582;1.470;2022-08-26T02:51:15;7.15;;;1.60;;
65583;SDS011;62116;43.582;1.470;2022-08-26T02:53:40;6.97;;;1.40;;
65583;SDS011;62116;43.582;1.470;2022-08-26T02:56:06;4.68;;;1.40;;
65583;SDS011;62116;43.582;1.470;2022-08-26T02:58:33;5.60;;;1.40;;
65583;SDS011;62116;43.582;1.470;2022-08-26T03:00:58;4.72;;;1.20;;
65583;SDS011;62116;43.582;1.470;2022-08-26T03:03:23;4.03;;;1.35;;
65583;SDS011;62116;43.582;1.470;2022-08-26T03:05:49;4.20;;;1.30;;
65583;SDS011;62116;43.582;1.470;2022-08-26T03:08:15;4.95;;;1.30;;
65583;SDS011;62116;43.582;1.470;2022-08-26T03:10:41;5.47;;;1.67;;
65583;SDS011;62116;43.582;1.470;2022-08-26T03:13:06;6.18;;;1.55;;
65583;SDS011;62116;43.582;1.470;2022-08-26T03:15:32;5.82;;;1.70;;
65583;SDS011;62116;43.582;1.470;2022-08-26T03:17:57;5.43;;;1.60;;
65583;SDS011;62116;43.582;1.470;2022-08-26T03:20:23;5.45;;;1.60;;
65583;SDS011;62116;43.582;1.470;2022-08-26T03:22:48;5.05;;;1.40;;
65583;SDS011;62116;43.582;1.470;2022-08-26T03:25:17;6.75;;;1.58;;
65583;SDS011;62116;43.582;1.470;2022-08-26T03:27:44;4.45;;;1.42;;
65583;SDS011;62116;43.582;1.470;2022-08-26T03:30:10;7.72;;;1.48;;
65583;SDS011;62116;43.582;1.470;2022-08-26T03:32:56;5.50;;;1.45;;
65583;SDS011;62116;43.582;1.470;2022-08-26T03:35:22;3.63;;;1.30;;
65583;SDS011;62116;43.582;1.470;2022-08-26T03:37:49;5.00;;;1.35;;
65583;SDS011;62116;43.582;1.470;2022-08-26T03:40:16;5.32;;;1.50;;
65583;SDS011;62116;43.582;1.470;2022-08-26T03:42:41;6.03;;;1.83;;
65583;SDS011;62116;43.582;1.470;2022-08-26T03:45:09;4.32;;;1.50;;
65583;SDS011;62116;43.582;1.470;2022-08-26T03:47:35;7.68;;;1.80;;
65583;SDS011;62116;43.582;1.470;2022-08-26T03:50:01;5.57;;;1.52;;
65583;SDS011;62116;43.582;1.470;2022-08-26T03:52:29;6.75;;;1.48;;
65583;SDS011;62116;43.582;1.470;2022-08-26T03:54:54;2.92;;;1.20;;
65583;SDS011;62116;43.582;1.470;2022-08-26T03:57:19;5.65;;;1.70;;
65583;SDS011;62116;43.582;1.470;2022-08-26T03:59:45;4.38;;;1.50;;
65583;SDS011;62116;43.582;1.470;2022-08-26T04:02:10;4.30;;;1.33;;
65583;SDS011;62116;43.582;1.470;2022-08-26T04:04:36;4.82;;;1.38;;
65583;SDS011;62116;43.582;1.470;2022-08-26T04:07:02;6.35;;;1.25;;
65583;SDS011;62116;43.582;1.470;2022-08-26T04:09:27;5.63;;;1.70;;
65583;SDS011;62116;43.582;1.470;2022-08-26T04:11:53;3.92;;;1.40;;
65583;SDS011;62116;43.582;1.470;2022-08-26T04:14:21;4.68;;;1.60;;
65583;SDS011;62116;43.582;1.470;2022-08-26T04:16:47;10.85;;;1.60;;
65583;SDS011;62116;43.582;1.470;2022-08-26T04:19:14;4.70;;;1.55;;
65583;SDS011;62116;43.582;1.470;2022-08-26T04:21:40;5.72;;;1.77;;
65583;SDS011;62116;43.582;1.470;2022-08-26T04:24:07;4.65;;;1.98;;
65583;SDS011;62116;43.582;1.470;2022-08-26T04:26:35;6.75;;;1.65;;
65583;SDS011;62116;43.582;1.470;2022-08-26T04:29:05;5.00;;;1.75;;
65583;SDS011;62116;43.582;1.470;2022-08-26T04:31:33;5.57;;;1.87;;
65583;SDS011;62116;43.582;1.470;2022-08-26T04:34:00;3.05;;;1.50;;
65583;SDS011;62116;43.582;1.470;2022-08-26T04:36:26;5.43;;;1.90;;
65583;SDS011;62116;43.582;1.470;2022-08-26T04:38:51;4.03;;;1.75;;
65583;SDS011;62116;43.582;1.470;2022-08-26T04:41:17;7.97;;;1.83;;
65583;SDS011;62116;43.582;1.470;2022-08-26T04:43:43;7.40;;;1.73;;
65583;SDS011;62116;43.582;1.470;2022-08-26T04:46:10;7.60;;;1.80;;
65583;SDS011;62116;43.582;1.470;2022-08-26T04:48:36;5.55;;;1.90;;
65583;SDS011;62116;43.582;1.470;2022-08-26T04:51:02;5.65;;;1.80;;
65583;SDS011;62116;43.582;1.470;2022-08-26T04:53:28;3.28;;;1.60;;
65583;SDS011;62116;43.582;1.470;2022-08-26T04:55:54;4.85;;;1.95;;
65583;SDS011;62116;43.582;1.470;2022-08-26T04:58:21;4.85;;;1.80;;
65583;SDS011;62116;43.582;1.470;2022-08-26T05:00:49;5.22;;;1.80;;
65583;SDS011;62116;43.582;1.470;2022-08-26T05:03:16;9.82;;;1.90;;
65583;SDS011;62116;43.582;1.470;2022-08-26T05:05:43;3.35;;;1.65;;
65583;SDS011;62116;43.582;1.470;2022-08-26T05:08:10;5.55;;;1.77;;
65583;SDS011;62116;43.582;1.470;2022-08-26T05:10:41;4.85;;;1.75;;
65583;SDS011;62116;43.582;1.470;2022-08-26T05:13:09;6.88;;;1.92;;
65583;SDS011;62116;43.582;1.470;2022-08-26T05:15:35;5.55;;;1.85;;
65583;SDS011;62116;43.582;1.470;2022-08-26T05:18:04;5.25;;;1.90;;
65583;SDS011;62116;43.582;1.470;2022-08-26T05:20:31;5.13;;;1.80;;
65583;SDS011;62116;43.582;1.470;2022-08-26T05:22:58;8.43;;;1.83;;
65583;SDS011;62116;43.582;1.470;2022-08-26T05:25:25;5.43;;;1.83;;
65583;SDS011;62116;43.582;1.470;2022-08-26T05:27:51;7.00;;;2.30;;
65583;SDS011;62116;43.582;1.470;2022-08-26T05:30:17;6.60;;;2.00;;
65583;SDS011;62116;43.582;1.470;2022-08-26T05:32:42;6.22;;;2.00;;
65583;SDS011;62116;43.582;1.470;2022-08-26T05:35:08;7.60;;;1.95;;
65583;SDS011;62116;43.582;1.470;2022-08-26T05:37:35;9.50;;;2.00;;
65583;SDS011;62116;43.582;1.470;2022-08-26T05:40:02;7.60;;;1.98;;
65583;SDS011;62116;43.582;1.470;2022-08-26T05:42:28;9.35;;;2.15;;
65583;SDS011;62116;43.582;1.470;2022-08-26T05:44:54;3.70;;;1.80;;
65583;SDS011;62116;43.582;1.470;2022-08-26T05:47:20;5.15;;;2.00;;
65583;SDS011;62116;43.582;1.470;2022-08-26T05:49:46;5.63;;;1.98;;
65583;SDS011;62116;43.582;1.470;2022-08-26T05:52:11;8.27;;;2.17;;
65583;SDS011;62116;43.582;1.470;2022-08-26T05:54:40;6.90;;;2.03;;
65583;SDS011;62116;43.582;1.470;2022-08-26T05:57:05;7.28;;;2.10;;
65583;SDS011;62116;43.582;1.470;2022-08-26T05:59:31;5.50;;;1.80;;
65583;SDS011;62116;43.582;1.470;2022-08-26T06:01:56;6.53;;;2.17;;
65583;SDS011;62116;43.582;1.470;2022-08-26T06:04:22;7.55;;;2.35;;
65583;SDS011;62116;43.582;1.470;2022-08-26T06:06:49;5.60;;;2.15;;
65583;SDS011;62116;43.582;1.470;2022-08-26T06:09:14;3.95;;;2.03;;
65583;SDS011;62116;43.582;1.470;2022-08-26T06:11:40;5.40;;;2.20;;
65583;SDS011;62116;43.582;1.470;2022-08-26T06:14:06;4.00;;;2.10;;
65583;SDS011;62116;43.582;1.470;2022-08-26T06:16:33;4.82;;;2.53;;
65583;SDS011;62116;43.582;1.470;2022-08-26T06:19:04;5.68;;;2.35;;
65583;SDS011;62116;43.582;1.470;2022-08-26T06:21:34;5.65;;;2.47;;
65583;SDS011;62116;43.582;1.470;2022-08-26T06:24:04;4.55;;;2.15;;
65583;SDS011;62116;43.582;1.470;2022-08-26T06:26:50;5.85;;;2.55;;
65583;SDS011;62116;43.582;1.470;2022-08-26T06:29:19;7.40;;;3.00;;
65583;SDS011;62116;43.582;1.470;2022-08-26T06:31:46;6.93;;;2.83;;
65583;SDS011;62116;43.582;1.470;2022-08-26T06:34:11;7.93;;;2.55;;
65583;SDS011;62116;43.582;1.470;2022-08-26T06:36:39;7.57;;;2.60;;
65583;SDS011;62116;43.582;1.470;2022-08-26T06:39:07;5.40;;;2.25;;
65583;SDS011;62116;43.582;1.470;2022-08-26T06:41:35;6.07;;;2.22;;
65583;SDS011;62116;43.582;1.470;2022-08-26T06:44:02;4.25;;;2.50;;
65583;SDS011;62116;43.582;1.470;2022-08-26T06:46:28;3.70;;;2.05;;
65583;SDS011;62116;43.582;1.470;2022-08-26T06:48:55;5.03;;;2.22;;
65583;SDS011;62116;43.582;1.470;2022-08-26T06:51:23;6.50;;;2.20;;
65583;SDS011;62116;43.582;1.470;2022-08-26T06:53:52;4.88;;;2.50;;
65583;SDS011;62116;43.582;1.470;2022-08-26T06:56:20;7.88;;;2.30;;
65583;SDS011;62116;43.582;1.470;2022-08-26T06:58:49;6.40;;;2.42;;
65583;SDS011;62116;43.582;1.470;2022-08-26T07:01:16;6.65;;;2.42;;
65583;SDS011;62116;43.582;1.470;2022-08-26T07:03:44;7.78;;;2.67;;
65583;SDS011;62116;43.582;1.470;2022-08-26T07:06:10;6.43;;;2.53;;
65583;SDS011;62116;43.582;1.470;2022-08-26T07:08:35;6.40;;;2.58;;
65583;SDS011;62116;43.582;1.470;2022-08-26T07:11:07;5.03;;;2.20;;
65583;SDS011;62116;43.582;1.470;2022-08-26T07:13:33;6.65;;;2.50;;
65583;SDS011;62116;43.582;1.470;2022-08-26T07:16:05;7.45;;;2.45;;
65583;SDS011;62116;43.582;1.470;2022-08-26T07:18:36;5.78;;;2.58;;
65583;SDS011;62116;43.582;1.470;2022-08-26T07:21:04;7.28;;;2.30;;
65583;SDS011;62116;43.582;1.470;2022-08-26T07:23:31;5.53;;;2.40;;
65583;SDS011;62116;43.582;1.470;2022-08-26T07:25:57;5.78;;;2.10;;
65583;SDS011;62116;43.582;1.470;2022-08-26T07:28:23;4.10;;;2.38;;
65583;SDS011;62116;43.582;1.470;2022-08-26T07:30:49;5.70;;;2.30;;
65583;SDS011;62116;43.582;1.470;2022-08-26T07:33:14;6.13;;;2.30;;
65583;SDS011;62116;43.582;1.470;2022-08-26T07:35:41;4.13;;;2.10;;
65583;SDS011;62116;43.582;1.470;2022-08-26T07:38:08;5.80;;;2.38;;
65583;SDS011;62116;43.582;1.470;2022-08-26T07:40:34;4.78;;;2.30;;
65583;SDS011;62116;43.582;1.470;2022-08-26T07:43:00;4.32;;;2.15;;
65583;SDS011;62116;43.582;1.470;2022-08-26T07:45:26;4.90;;;2.00;;
65583;SDS011;62116;43.582;1.470;2022-08-26T07:47:51;5.93;;;2.20;;
65583;SDS011;62116;43.582;1.470;2022-08-26T07:50:17;4.88;;;2.20;;
65583;SDS011;62116;43.582;1.470;2022-08-26T07:52:42;3.97;;;2.03;;
65583;SDS011;62116;43.582;1.470;2022-08-26T07:55:08;6.32;;;2.40;;
65583;SDS011;62116;43.582;1.470;2022-08-26T07:57:35;6.32;;;2.00;;
65583;SDS011;62116;43.582;1.470;2022-08-26T08:00:00;5.40;;;2.30;;
65583;SDS011;62116;43.582;1.470;2022-08-26T08:02:28;3.90;;;2.00;;
65583;SDS011;62116;43.582;1.470;2022-08-26T08:04:54;4.55;;;2.40;;
65583;SDS011;62116;43.582;1.470;2022-08-26T08:07:21;6.63;;;2.10;;
65583;SDS011;62116;43.582;1.470;2022-08-26T08:09:46;4.70;;;2.33;;
65583;SDS011;62116;43.582;1.470;2022-08-26T08:12:15;5.95;;;2.42;;
65583;SDS011;62116;43.582;1.470;2022-08-26T08:14:41;4.15;;;2.00;;
65583;SDS011;62116;43.582;1.470;2022-08-26T08:17:09;7.70;;;2.30;;
65583;SDS011;62116;43.582;1.470;2022-08-26T08:19:35;5.05;;;2.20;;
65583;SDS011;62116;43.582;1.470;2022-08-26T08:22:00;6.60;;;2.33;;
65583;SDS011;62116;43.582;1.470;2022-08-26T08:24:28;6.05;;;2.00;;
65583;SDS011;62116;43.582;1.470;2022-08-26T08:26:54;8.73;;;2.13;;
65583;SDS011;62116;43.582;1.470;2022-08-26T08:29:20;4.63;;;2.20;;
65583;SDS011;62116;43.582;1.470;2022-08-26T08:31:45;9.82;;;2.47;;
65583;SDS011;62116;43.582;1.470;2022-08-26T08:34:13;4.00;;;1.98;;
65583;SDS011;62116;43.582;1.470;2022-08-26T08:36:39;4.25;;;2.08;;
65583;SDS011;62116;43.582;1.470;2022-08-26T08:39:04;9.30;;;2.10;;
65583;SDS011;62116;43.582;1.470;2022-08-26T08:44:07;5.03;;;2.15;;
65583;SDS011;62116;43.582;1.470;2022-08-26T08:46:38;5.40;;;2.10;;
65583;SDS011;62116;43.582;1.470;2022-08-26T08:49:06;4.68;;;2.10;;
65583;SDS011;62116;43.582;1.470;2022-08-26T08:51:36;8.43;;;2.05;;
65583;SDS011;62116;43.582;1.470;2022-08-26T08:54:05;4.10;;;2.00;;
65583;SDS011;62116;43.582;1.470;2022-08-26T08:56:34;4.78;;;2.25;;
65583;SDS011;62116;43.582;1.470;2022-08-26T09:07:00;6.38;;;2.20;;
65583;SDS011;62116;43.582;1.470;2022-08-26T09:12:14;2.47;;;1.80;;
65583;SDS011;62116;43.582;1.470;2022-08-26T09:14:45;3.08;;;2.00;;
65583;SDS011;62116;43.582;1.470;2022-08-26T09:19:53;4.57;;;2.00;;
65583;SDS011;62116;43.582;1.470;2022-08-26T09:22:33;4.70;;;2.40;;
65583;SDS011;62116;43.582;1.470;2022-08-26T09:25:00;3.53;;;1.80;;
65583;SDS011;62116;43.582;1.470;2022-08-26T09:27:47;5.57;;;1.88;;
65583;SDS011;62116;43.582;1.470;2022-08-26T09:30:17;3.80;;;1.90;;
65583;SDS011;62116;43.582;1.470;2022-08-26T09:33:01;3.63;;;1.73;;
65583;SDS011;62116;43.582;1.470;2022-08-26T09:35:33;3.97;;;1.83;;
65583;SDS011;62116;43.582;1.470;2022-08-26T09:38:01;4.35;;;1.90;;
65583;SDS011;62116;43.582;1.470;2022-08-26T09:40:44;4.18;;;1.73;;
65583;SDS011;62116;43.582;1.470;2022-08-26T09:43:25;5.40;;;1.98;;
65583;SDS011;62116;43.582;1.470;2022-08-26T09:45:53;4.05;;;1.67;;
65583;SDS011;62116;43.582;1.470;2022-08-26T09:48:35;4.28;;;1.80;;
65583;SDS011;62116;43.582;1.470;2022-08-26T09:51:06;3.47;;;1.70;;
65583;SDS011;62116;43.582;1.470;2022-08-26T09:53:54;4.10;;;1.70;;
65583;SDS011;62116;43.582;1.470;2022-08-26T09:58:53;5.07;;;2.03;;
65583;SDS011;62116;43.582;1.470;2022-08-26T10:04:11;5.07;;;1.70;;
65583;SDS011;62116;43.582;1.470;2022-08-26T10:07:00;4.03;;;1.70;;
65583;SDS011;62116;43.582;1.470;2022-08-26T10:09:28;6.05;;;1.90;;
65583;SDS011;62116;43.582;1.470;2022-08-26T10:11:58;4.75;;;1.90;;
65583;SDS011;62116;43.582;1.470;2022-08-26T10:14:37;6.38;;;2.00;;
65583;SDS011;62116;43.582;1.470;2022-08-26T10:17:10;4.80;;;1.80;;
65583;SDS011;62116;43.582;1.470;2022-08-26T10:19:55;4.00;;;1.77;;
65583;SDS011;62116;43.582;1.470;2022-08-26T10:22:48;4.57;;;1.70;;
65583;SDS011;62116;43.582;1.470;2022-08-26T10:25:20;2.25;;;1.70;;
65583;SDS011;62116;43.582;1.470;2022-08-26T10:27:53;5.00;;;1.90;;
65583;SDS011;62116;43.582;1.470;2022-08-26T10:30:23;4.72;;;1.80;;
65583;SDS011;62116;43.582;1.470;2022-08-26T10:32:56;4.10;;;1.65;;
65583;SDS011;62116;43.582;1.470;2022-08-26T10:35:30;8.90;;;1.70;;
65583;SDS011;62116;43.582;1.470;2022-08-26T10:38:09;4.28;;;1.70;;
65583;SDS011;62116;43.582;1.470;2022-08-26T10:45:58;2.80;;;1.50;;
65583;SDS011;62116;43.582;1.470;2022-08-26T10:48:42;2.58;;;1.45;;
65583;SDS011;62116;43.582;1.470;2022-08-26T10:51:11;3.47;;;1.50;;
65583;SDS011;62116;43.582;1.470;2022-08-26T10:59:09;2.35;;;1.17;;
65583;SDS011;62116;43.582;1.470;2022-08-26T11:06:45;2.65;;;1.30;;
65583;SDS011;62116;43.582;1.470;2022-08-26T11:09:10;2.50;;;1.30;;
65583;SDS011;62116;43.582;1.470;2022-08-26T11:11:56;3.85;;;1.30;;
65583;SDS011;62116;43.582;1.470;2022-08-26T11:16:51;5.03;;;1.50;;
65583;SDS011;62116;43.582;1.470;2022-08-26T11:32:43;3.08;;;1.40;;
65583;SDS011;62116;43.582;1.470;2022-08-26T11:35:44;3.03;;;1.20;;
65583;SDS011;62116;43.582;1.470;2022-08-26T11:38:03;3.22;;;1.27;;
65583;SDS011;62116;43.582;1.470;2022-08-26T11:40:39;2.67;;;1.20;;
65583;SDS011;62116;43.582;1.470;2022-08-26T11:43:17;1.85;;;1.10;;
65583;SDS011;62116;43.582;1.470;2022-08-26T11:46:09;2.95;;;1.30;;
65583;SDS011;62116;43.582;1.470;2022-08-26T11:48:38;5.95;;;1.40;;
65583;SDS011;62116;43.582;1.470;2022-08-26T11:51:08;3.83;;;1.30;;
65583;SDS011;62116;43.582;1.470;2022-08-26T11:53:45;2.83;;;1.10;;
65583;SDS011;62116;43.582;1.470;2022-08-26T11:56:21;3.70;;;1.38;;
65583;SDS011;62116;43.582;1.470;2022-08-26T12:01:25;4.38;;;1.48;;
65583;SDS011;62116;43.582;1.470;2022-08-26T12:03:53;5.90;;;1.60;;
65583;SDS011;62116;43.582;1.470;2022-08-26T12:06:27;3.53;;;1.30;;
65583;SDS011;62116;43.582;1.470;2022-08-26T12:08:57;3.53;;;1.10;;
65583;SDS011;62116;43.582;1.470;2022-08-26T12:11:25;2.13;;;1.10;;
65583;SDS011;62116;43.582;1.470;2022-08-26T12:13:59;5.15;;;1.20;;
65583;SDS011;62116;43.582;1.470;2022-08-26T12:16:27;5.10;;;1.20;;
65583;SDS011;62116;43.582;1.470;2022-08-26T12:18:54;3.13;;;1.20;;
65583;SDS011;62116;43.582;1.470;2022-08-26T12:21:22;2.90;;;1.42;;
65583;SDS011;62116;43.582;1.470;2022-08-26T12:23:59;3.92;;;1.35;;
65583;SDS011;62116;43.582;1.470;2022-08-26T12:26:31;3.05;;;1.20;;
65583;SDS011;62116;43.582;1.470;2022-08-26T12:29:01;3.67;;;1.48;;
65583;SDS011;62116;43.582;1.470;2022-08-26T12:31:31;3.00;;;1.30;;
65583;SDS011;62116;43.582;1.470;2022-08-26T12:34:03;2.40;;;1.02;;
65583;SDS011;62116;43.582;1.470;2022-08-26T12:36:32;3.50;;;1.27;;
65583;SDS011;62116;43.582;1.470;2022-08-26T12:39:04;2.47;;;1.10;;
65583;SDS011;62116;43.582;1.470;2022-08-26T12:41:40;2.72;;;1.10;;
65583;SDS011;62116;43.582;1.470;2022-08-26T12:44:06;2.15;;;1.20;;
65583;SDS011;62116;43.582;1.470;2022-08-26T12:46:31;2.72;;;1.25;;
65583;SDS011;62116;43.582;1.470;2022-08-26T12:48:57;3.45;;;1.40;;
65583;SDS011;62116;43.582;1.470;2022-08-26T12:51:29;2.78;;;1.15;;
65583;SDS011;62116;43.582;1.470;2022-08-26T12:53:56;2.35;;;1.10;;
65583;SDS011;62116;43.582;1.470;2022-08-26T13:01:47;4.15;;;1.33;;
65583;SDS011;62116;43.582;1.470;2022-08-26T13:07:13;3.83;;;1.25;;
65583;SDS011;62116;43.582;1.470;2022-08-26T13:09:50;3.03;;;1.08;;
65583;SDS011;62116;43.582;1.470;2022-08-26T13:12:22;3.53;;;1.20;;
65583;SDS011;62116;43.582;1.470;2022-08-26T13:14:50;4.07;;;1.20;;
65583;SDS011;62116;43.582;1.470;2022-08-26T13:17:15;2.05;;;1.08;;
65583;SDS011;62116;43.582;1.470;2022-08-26T13:19:41;1.90;;;1.10;;
65583;SDS011;62116;43.582;1.470;2022-08-26T13:22:06;3.53;;;1.30;;
65583;SDS011;62116;43.582;1.470;2022-08-26T13:24:37;3.75;;;1.00;;
65583;SDS011;62116;43.582;1.470;2022-08-26T13:27:05;2.97;;;1.20;;
65583;SDS011;62116;43.582;1.470;2022-08-26T13:29:32;2.70;;;1.13;;
65583;SDS011;62116;43.582;1.470;2022-08-26T13:31:58;4.65;;;1.30;;
65583;SDS011;62116;43.582;1.470;2022-08-26T13:34:24;3.17;;;1.08;;
65583;SDS011;62116;43.582;1.470;2022-08-26T13:36:50;2.42;;;1.10;;
65583;SDS011;62116;43.582;1.470;2022-08-26T13:39:17;2.28;;;1.15;;
65583;SDS011;62116;43.582;1.470;2022-08-26T13:41:43;2.65;;;1.10;;
65583;SDS011;62116;43.582;1.470;2022-08-26T13:44:08;2.85;;;1.30;;
65583;SDS011;62116;43.582;1.470;2022-08-26T13:46:34;1.83;;;1.02;;
65583;SDS011;62116;43.582;1.470;2022-08-26T13:49:00;2.80;;;1.20;;
65583;SDS011;62116;43.582;1.470;2022-08-26T13:51:26;2.65;;;1.25;;
65583;SDS011;62116;43.582;1.470;2022-08-26T13:53:52;5.10;;;1.30;;
65583;SDS011;62116;43.582;1.470;2022-08-26T13:56:18;3.70;;;1.30;;
65583;SDS011;62116;43.582;1.470;2022-08-26T13:58:44;5.00;;;1.20;;
65583;SDS011;62116;43.582;1.470;2022-08-26T14:01:10;4.22;;;1.20;;
65583;SDS011;62116;43.582;1.470;2022-08-26T14:03:36;3.65;;;1.40;;
65583;SDS011;62116;43.582;1.470;2022-08-26T14:06:02;3.65;;;1.20;;
65583;SDS011;62116;43.582;1.470;2022-08-26T14:08:28;3.67;;;1.40;;
65583;SDS011;62116;43.582;1.470;2022-08-26T14:10:54;4.47;;;1.15;;
65583;SDS011;62116;43.582;1.470;2022-08-26T14:13:20;2.38;;;1.02;;
65583;SDS011;62116;43.582;1.470;2022-08-26T14:15:45;2.70;;;1.23;;
65583;SDS011;62116;43.582;1.470;2022-08-26T14:18:12;2.85;;;1.30;;
65583;SDS011;62116;43.582;1.470;2022-08-26T14:20:40;2.85;;;1.30;;
65583;SDS011;62116;43.582;1.470;2022-08-26T14:25:35;2.60;;;1.20;;
65583;SDS011;62116;43.582;1.470;2022-08-26T14:28:00;4.10;;;1.25;;
65583;SDS011;62116;43.582;1.470;2022-08-26T14:30:26;3.72;;;1.10;;
65583;SDS011;62116;43.582;1.470;2022-08-26T14:32:53;2.25;;;1.25;;
65583;SDS011;62116;43.582;1.470;2022-08-26T14:35:22;5.82;;;1.33;;
65583;SDS011;62116;43.582;1.470;2022-08-26T14:37:49;2.53;;;1.10;;
65583;SDS011;62116;43.582;1.470;2022-08-26T14:40:15;3.95;;;1.30;;
65583;SDS011;62116;43.582;1.470;2022-08-26T14:42:43;2.15;;;1.10;;
65583;SDS011;62116;43.582;1.470;2022-08-26T14:45:14;2.92;;;1.30;;
65583;SDS011;62116;43.582;1.470;2022-08-26T14:47:42;3.88;;;1.10;;
65583;SDS011;62116;43.582;1.470;2022-08-26T14:50:09;4.40;;;1.08;;
65583;SDS011;62116;43.582;1.470;2022-08-26T14:52:36;3.15;;;1.30;;
65583;SDS011;62116;43.582;1.470;2022-08-26T14:55:21;2.05;;;1.20;;
65583;SDS011;62116;43.582;1.470;2022-08-26T14:57:46;2.35;;;1.23;;
65583;SDS011;62116;43.582;1.470;2022-08-26T15:00:12;4.72;;;1.40;;
65583;SDS011;62116;43.582;1.470;2022-08-26T15:02:38;4.65;;;1.30;;
65583;SDS011;62116;43.582;1.470;2022-08-26T15:05:04;2.63;;;1.20;;
65583;SDS011;62116;43.582;1.470;2022-08-26T15:07:32;3.35;;;1.20;;
65583;SDS011;62116;43.582;1.470;2022-08-26T15:09:58;6.13;;;1.20;;
65583;SDS011;62116;43.582;1.470;2022-08-26T15:12:23;2.58;;;1.30;;
65583;SDS011;62116;43.582;1.470;2022-08-26T15:14:49;2.65;;;1.35;;
65583;SDS011;62116;43.582;1.470;2022-08-26T15:17:14;3.20;;;1.25;;
65583;SDS011;62116;43.582;1.470;2022-08-26T15:19:40;2.58;;;1.20;;
65583;SDS011;62116;43.582;1.470;2022-08-26T15:22:05;2.20;;;1.20;;
65583;SDS011;62116;43.582;1.470;2022-08-26T15:24:31;2.38;;;1.20;;
65583;SDS011;62116;43.582;1.470;2022-08-26T15:26:56;2.75;;;1.20;;
65583;SDS011;62116;43.582;1.470;2022-08-26T15:29:21;4.47;;;1.40;;
65583;SDS011;62116;43.582;1.470;2022-08-26T15:31:50;2.75;;;1.30;;
65583;SDS011;62116;43.582;1.470;2022-08-26T15:34:16;2.65;;;1.20;;
65583;SDS011;62116;43.582;1.470;2022-08-26T15:36:42;2.75;;;1.30;;
65583;SDS011;62116;43.582;1.470;2022-08-26T15:39:09;3.10;;;1.30;;
65583;SDS011;62116;43.582;1.470;2022-08-26T15:41:34;5.07;;;1.40;;
65583;SDS011;62116;43.582;1.470;2022-08-26T15:44:00;2.60;;;1.30;;
65583;SDS011;62116;43.582;1.470;2022-08-26T15:46:26;2.00;;;1.10;;
65583;SDS011;62116;43.582;1.470;2022-08-26T15:48:52;3.28;;;1.30;;
65583;SDS011;62116;43.582;1.470;2022-08-26T15:51:21;3.67;;;1.30;;
65583;SDS011;62116;43.582;1.470;2022-08-26T15:53:50;5.80;;;1.40;;
65583;SDS011;62116;43.582;1.470;2022-08-26T15:56:16;2.80;;;1.05;;
65583;SDS011;62116;43.582;1.470;2022-08-26T15:58:41;2.97;;;1.15;;
65583;SDS011;62116;43.582;1.470;2022-08-26T16:01:06;3.70;;;1.33;;